Time;durP1;ratioP1;P1;durP2;ratioP2;P2;SDS_P1;SDS_P2;PMS_P1;PMS_P2;Temp;Humidity;BMP_temperature;BMP_pressure;BME280_temperature;BME280_humidity;BME280_pressure;Samples;Min_cycle;Max_cycle;Signal;HPM_P1;HPM_P2
2022/07/30 00:01:27;;;;;;;5.13;4.57;;;20.30;99.90;;;;;;4141907;28;20076;-63
2022/07/30 00:03:29;;;;;;;6.75;4.80;;;20.30;99.90;;;;;;4134559;28;20022;-65
2022/07/30 00:05:30;;;;;;;5.13;4.63;;;20.30;99.90;;;;;;4131719;28;20037;-63
2022/07/30 00:07:31;;;;;;;5.20;4.70;;;20.30;99.90;;;;;;4145323;28;20038;-65
2022/07/30 00:09:32;;;;;;;8.43;4.68;;;20.30;99.90;;;;;;4145050;28;20050;-64
2022/07/30 00:11:33;;;;;;;5.47;4.55;;;20.30;99.90;;;;;;4145236;28;20034;-65
2022/07/30 00:13:35;;;;;;;7.28;4.80;;;20.30;99.90;;;;;;4143430;28;20579;-63
2022/07/30 00:15:36;;;;;;;6.45;4.93;;;20.30;99.90;;;;;;4132471;28;20438;-64
2022/07/30 00:17:37;;;;;;;7.07;5.75;;;20.30;99.90;;;;;;4128552;28;20097;-63
2022/07/30 00:19:38;;;;;;;5.72;4.68;;;20.40;99.90;;;;;;4129407;28;20128;-64
2022/07/30 00:21:39;;;;;;;4.60;4.20;;;20.40;99.90;;;;;;4129396;28;20046;-65
2022/07/30 00:23:41;;;;;;;5.80;4.50;;;20.40;99.90;;;;;;4129688;28;20030;-65
2022/07/30 00:25:42;;;;;;;4.60;4.20;;;20.40;99.90;;;;;;4140004;28;20045;-64
2022/07/30 00:27:44;;;;;;;5.30;4.72;;;20.40;99.90;;;;;;4145620;28;20100;-64
2022/07/30 00:29:45;;;;;;;5.28;4.78;;;20.40;99.90;;;;;;4144956;28;20042;-65
2022/07/30 00:31:46;;;;;;;5.90;4.78;;;20.40;99.90;;;;;;4145299;28;20042;-65
2022/07/30 00:33:47;;;;;;;5.60;4.75;;;20.50;99.90;;;;;;4145194;28;20050;-63
2022/07/30 00:35:48;;;;;;;6.43;4.40;;;20.50;99.90;;;;;;4144625;28;20367;-65
2022/07/30 00:37:50;;;;;;;6.35;4.93;;;20.50;99.90;;;;;;4144498;28;20050;-63
2022/07/30 00:39:51;;;;;;;6.75;4.68;;;20.40;99.90;;;;;;4144372;28;20092;-64
2022/07/30 00:42:03;;;;;;;5.03;4.55;;;20.40;99.90;;;;;;4145883;28;20045;-64
2022/07/30 00:44:04;;;;;;;7.20;4.50;;;20.40;99.90;;;;;;4144405;28;20022;-63
2022/07/30 00:46:05;;;;;;;5.32;4.10;;;20.30;99.90;;;;;;4143485;28;20470;-63
2022/07/30 00:48:06;;;;;;;4.93;4.13;;;20.30;99.90;;;;;;4128775;28;20109;-64
2022/07/30 00:50:09;;;;;;;5.63;4.95;;;20.30;99.90;;;;;;4141146;28;20091;-63
2022/07/30 00:52:11;;;;;;;5.32;4.82;;;20.30;99.90;;;;;;4144127;28;20104;-64
2022/07/30 00:54:14;;;;;;;5.03;4.38;;;20.30;99.90;;;;;;4145455;28;20042;-64
2022/07/30 00:56:15;;;;;;;5.50;4.63;;;20.30;99.90;;;;;;4143866;28;20026;-65
2022/07/30 00:58:16;;;;;;;6.47;5.60;;;20.40;99.90;;;;;;4113623;28;20569;-63
2022/07/30 01:00:18;;;;;;;5.32;4.55;;;20.40;99.90;;;;;;4124424;28;20093;-64
2022/07/30 01:02:19;;;;;;;5.85;4.75;;;20.40;99.90;;;;;;4129025;28;20042;-63
2022/07/30 01:04:20;;;;;;;5.22;4.70;;;20.40;99.90;;;;;;4128099;28;20027;-63
2022/07/30 01:06:22;;;;;;;6.90;5.55;;;20.30;99.90;;;;;;4142471;28;20088;-63
2022/07/30 01:08:23;;;;;;;5.28;4.78;;;20.30;99.90;;;;;;4144713;28;20081;-63
2022/07/30 01:10:24;;;;;;;4.68;4.18;;;20.30;99.90;;;;;;4144482;28;20486;-66
2022/07/30 01:12:27;;;;;;;9.93;5.20;;;20.30;99.90;;;;;;4144903;28;20100;-63
2022/07/30 01:14:28;;;;;;;7.60;4.95;;;20.30;99.90;;;;;;4142306;28;20026;-64
2022/07/30 01:16:29;;;;;;;6.53;5.05;;;20.30;99.90;;;;;;4145566;28;20089;-63
2022/07/30 01:21:08;;;;;;;6.00;4.80;;;20.30;99.90;;;;;;4145132;28;20030;-62
2022/07/30 01:23:20;;;;;;;5.13;4.45;;;20.30;99.90;;;;;;4144543;28;20096;-63
2022/07/30 01:25:30;;;;;;;5.18;4.72;;;20.30;99.90;;;;;;4145143;28;20049;-64
2022/07/30 01:27:33;;;;;;;;;;;20.30;99.90;;;;;;4144869;28;20041;-64
2022/07/30 01:29:37;;;;;;;5.05;4.55;;;20.30;99.90;;;;;;4129659;28;19910;-62
2022/07/30 01:31:38;;;;;;;5.20;4.32;;;20.20;99.90;;;;;;4127694;28;20101;-64
2022/07/30 01:33:43;;;;;;;6.85;5.30;;;20.20;99.90;;;;;;4128828;28;20026;-63
2022/07/30 01:35:47;;;;;;;6.68;5.22;;;20.20;99.90;;;;;;4127813;28;20434;-63
2022/07/30 01:37:50;;;;;;;5.50;5.00;;;20.10;99.90;;;;;;4132158;28;20084;-62
2022/07/30 01:39:52;;;;;;;7.97;5.57;;;20.10;99.90;;;;;;4139432;28;20895;-62
2022/07/30 01:41:55;;;;;;;6.00;5.28;;;20.10;99.90;;;;;;4129033;28;20030;-62
2022/07/30 01:43:57;;;;;;;9.63;6.13;;;20.10;99.90;;;;;;4127784;28;20038;-62
2022/07/30 01:46:00;;;;;;;7.43;5.50;;;20.10;99.90;;;;;;4128978;28;20454;-63
2022/07/30 01:48:04;;;;;;;6.53;5.13;;;20.00;99.90;;;;;;4127649;28;20087;-63
2022/07/30 01:50:08;;;;;;;7.05;5.55;;;20.00;99.90;;;;;;4131381;28;20038;-63
2022/07/30 01:52:11;;;;;;;8.45;5.30;;;20.00;99.90;;;;;;4130289;28;20442;-63
2022/07/30 01:54:13;;;;;;;5.68;4.75;;;20.00;99.90;;;;;;4131562;28;20042;-64
2022/07/30 01:56:18;;;;;;;7.93;5.22;;;20.00;99.90;;;;;;4132124;28;20077;-63
2022/07/30 01:58:21;;;;;;;6.53;5.60;;;20.00;99.90;;;;;;4147735;28;20092;-63
2022/07/30 02:00:25;;;;;;;5.88;5.25;;;20.00;99.90;;;;;;4147054;28;20033;-63
2022/07/30 02:02:26;;;;;;;8.20;5.68;;;20.00;99.90;;;;;;4147370;28;20457;-63
2022/07/30 02:04:29;;;;;;;6.18;5.50;;;19.90;99.90;;;;;;4147357;28;20536;-64
2022/07/30 02:06:58;;;;;;;10.82;5.70;;;19.90;99.90;;;;;;4146467;28;20081;-62
2022/07/30 02:09:04;;;;;;;7.13;6.30;;;19.90;99.90;;;;;;4144451;28;20038;-64
2022/07/30 02:13:56;;;;;;;7.00;6.00;;;19.90;99.90;;;;;;4146701;28;20077;-63
2022/07/30 02:16:22;;;;;;;6.10;5.50;;;19.90;99.90;;;;;;4132240;28;20026;-63
2022/07/30 02:18:31;;;;;;;7.35;5.35;;;19.90;99.90;;;;;;4130215;28;20557;-63
2022/07/30 02:20:34;;;;;;;9.27;6.18;;;19.90;99.90;;;;;;4131368;28;20030;-63
2022/07/30 02:22:38;;;;;;;6.78;6.05;;;19.80;99.90;;;;;;4129806;28;20046;-64
2022/07/30 02:24:41;;;;;;;5.63;5.03;;;19.80;99.90;;;;;;4131260;28;20085;-63
2022/07/30 02:26:46;;;;;;;7.50;5.95;;;19.80;99.90;;;;;;4130063;28;20453;-63
2022/07/30 02:28:51;;;;;;;15.13;6.10;;;19.80;99.90;;;;;;4132578;28;20054;-65
2022/07/30 02:30:58;;;;;;;6.53;5.35;;;19.80;99.90;;;;;;4130272;28;20093;-63
2022/07/30 02:33:07;;;;;;;6.80;5.88;;;19.80;99.90;;;;;;4130630;28;20109;-64
2022/07/30 02:35:19;;;;;;;8.00;5.75;;;19.80;99.90;;;;;;4129938;28;20125;-63
2022/07/30 02:37:24;;;;;;;6.88;5.97;;;19.80;99.90;;;;;;4130527;28;20084;-63
2022/07/30 02:39:27;;;;;;;9.00;6.07;;;19.80;99.90;;;;;;4137489;28;20383;-63
2022/07/30 02:41:30;;;;;;;6.47;5.82;;;19.80;99.90;;;;;;4146764;28;20076;-64
2022/07/30 02:43:33;;;;;;;8.02;5.80;;;19.80;99.90;;;;;;4146378;28;20449;-63
2022/07/30 02:45:34;;;;;;;6.35;5.57;;;19.80;99.90;;;;;;4146314;28;20037;-63
2022/07/30 02:47:37;;;;;;;6.90;6.15;;;19.80;99.90;;;;;;4146452;28;20131;-64
2022/07/30 02:49:40;;;;;;;7.53;6.45;;;19.80;99.90;;;;;;4146003;28;20021;-64
2022/07/30 02:51:42;;;;;;;6.60;5.95;;;19.80;99.90;;;;;;4139728;28;20050;-64
2022/07/30 02:53:46;;;;;;;6.43;5.75;;;19.80;99.90;;;;;;4129567;28;20426;-64
2022/07/30 02:55:49;;;;;;;6.40;5.80;;;19.80;99.90;;;;;;4130606;28;20030;-63
2022/07/30 02:57:52;;;;;;;9.27;6.35;;;19.80;99.90;;;;;;4129804;28;20109;-63
2022/07/30 02:59:54;;;;;;;8.27;6.15;;;19.80;99.90;;;;;;4131224;28;20108;-64
2022/07/30 03:01:56;;;;;;;7.00;6.13;;;19.70;99.90;;;;;;4129324;28;20144;-63
2022/07/30 03:03:59;;;;;;;8.63;5.65;;;19.70;99.90;;;;;;4131736;28;20076;-64
2022/07/30 03:06:01;;;;;;;6.72;6.10;;;19.70;99.90;;;;;;4129288;28;20030;-63
2022/07/30 03:08:03;;;;;;;8.00;6.25;;;19.70;99.90;;;;;;4130633;28;20034;-62
2022/07/30 03:10:06;;;;;;;6.88;6.18;;;19.70;99.90;;;;;;4129509;28;20065;-67
2022/07/30 03:12:11;;;;;;;9.63;5.82;;;19.70;99.90;;;;;;4130381;28;20038;-62
2022/07/30 03:14:12;;;;;;;6.50;5.75;;;19.70;99.90;;;;;;4132293;28;20029;-63
2022/07/30 03:16:16;;;;;;;9.30;6.15;;;19.70;99.90;;;;;;4146576;28;20049;-63
2022/07/30 03:18:19;;;;;;;7.30;6.25;;;19.70;99.90;;;;;;4145892;28;20034;-63
2022/07/30 03:20:24;;;;;;;6.82;5.93;;;19.70;99.90;;;;;;4145979;28;20029;-63
2022/07/30 03:22:27;;;;;;;7.15;6.45;;;19.70;99.90;;;;;;4145585;28;20398;-62
2022/07/30 03:24:31;;;;;;;7.30;5.75;;;19.70;99.90;;;;;;4146009;28;20084;-63
2022/07/30 03:26:35;;;;;;;7.65;5.95;;;19.70;99.90;;;;;;4144391;28;20037;-64
2022/07/30 03:28:38;;;;;;;9.13;7.55;;;19.70;99.90;;;;;;4145958;28;20042;-63
2022/07/30 03:30:42;;;;;;;8.88;7.97;;;19.70;99.90;;;;;;4146250;28;20080;-63
2022/07/30 03:32:44;;;;;;;11.23;7.90;;;19.70;99.90;;;;;;4145393;28;20458;-64
2022/07/30 03:34:46;;;;;;;8.57;7.68;;;19.70;99.90;;;;;;4146396;28;20494;-63
2022/07/30 03:36:48;;;;;;;7.35;6.30;;;19.70;99.90;;;;;;4145187;28;20034;-64
2022/07/30 03:38:49;;;;;;;8.23;6.05;;;19.70;99.90;;;;;;4132580;28;20050;-64
2022/07/30 03:40:51;;;;;;;7.60;6.55;;;19.70;99.90;;;;;;4129152;28;20050;-63
2022/07/30 03:42:54;;;;;;;7.10;6.40;;;19.70;99.90;;;;;;4130101;28;20058;-63
2022/07/30 03:44:56;;;;;;;6.75;6.15;;;19.70;99.90;;;;;;4129031;28;20030;-63
2022/07/30 03:46:59;;;;;;;6.78;5.47;;;19.70;99.90;;;;;;4130307;28;20042;-64
2022/07/30 03:49:01;;;;;;;9.88;6.18;;;19.80;99.90;;;;;;4128902;28;20462;-64
2022/07/30 03:51:05;;;;;;;8.32;6.70;;;19.90;99.90;;;;;;4129611;28;20050;-63
2022/07/30 03:53:08;;;;;;;7.05;6.07;;;19.90;99.90;;;;;;4128747;28;20054;-66
2022/07/30 03:55:11;;;;;;;6.68;6.03;;;19.90;99.90;;;;;;4129704;28;20100;-63
2022/07/30 03:57:12;;;;;;;8.95;6.80;;;19.90;99.90;;;;;;4128829;28;20069;-63
2022/07/30 03:59:14;;;;;;;9.55;6.82;;;20.00;99.90;;;;;;4129573;28;20089;-63
2022/07/30 04:01:15;;;;;;;12.63;6.68;;;20.00;99.90;;;;;;4130247;28;20031;-64
2022/07/30 04:03:31;;;;;;;7.53;6.55;;;20.10;99.90;;;;;;4128930;28;20470;-65
2022/07/30 04:05:32;;;;;;;10.75;6.45;;;20.10;99.90;;;;;;4129362;28;20039;-63
2022/07/30 04:07:33;;;;;;;7.85;6.20;;;20.40;99.90;;;;;;4128757;28;20050;-67
2022/07/30 04:09:34;;;;;;;7.05;6.30;;;20.70;99.90;;;;;;4129618;28;20557;-63
2022/07/30 04:11:36;;;;;;;7.25;6.35;;;20.90;99.90;;;;;;4128678;28;20380;-63
2022/07/30 04:13:37;;;;;;;6.85;6.10;;;20.90;99.90;;;;;;4129440;28;20042;-64
2022/07/30 04:16:09;;;;;;;9.18;6.28;;;20.90;99.90;;;;;;4143548;28;20088;-65
2022/07/30 04:18:11;;;;;;;7.10;5.60;;;21.30;99.90;;;;;;4144842;28;20441;-64
2022/07/30 04:20:18;;;;;;;7.35;6.00;;;21.50;99.90;;;;;;4144717;28;20080;-64
2022/07/30 04:22:33;;;;;;;10.93;6.38;;;21.60;99.90;;;;;;4145554;28;20113;-64
2022/07/30 04:24:36;;;;;;;12.02;6.55;;;21.80;99.90;;;;;;4144392;28;20038;-63
2022/07/30 04:26:38;;;;;;;9.35;6.40;;;22.00;99.90;;;;;;4144358;28;20046;-63
2022/07/30 04:28:40;;;;;;;6.15;5.55;;;22.10;99.90;;;;;;4141651;28;20049;-63
2022/07/30 04:30:41;;;;;;;7.47;6.20;;;22.20;99.90;;;;;;4142488;28;20101;-62
2022/07/30 04:32:43;;;;;;;7.38;6.57;;;22.30;99.90;;;;;;4127700;28;20042;-64
2022/07/30 04:34:52;;;;;;;6.35;5.68;;;22.50;99.90;;;;;;4129404;28;20054;-64
2022/07/30 04:36:53;;;;;;;8.98;6.90;;;22.60;99.90;;;;;;4128153;28;20379;-63
2022/07/30 04:38:55;;;;;;;8.07;6.68;;;22.70;99.90;;;;;;4129105;28;20034;-63
2022/07/30 04:40:56;;;;;;;8.13;6.05;;;22.80;99.90;;;;;;4128842;28;20097;-64
2022/07/30 04:42:57;;;;;;;8.65;5.88;;;22.70;99.90;;;;;;4128137;28;20442;-63
2022/07/30 04:44:58;;;;;;;7.15;5.75;;;22.80;99.90;;;;;;4128090;28;20610;-64
2022/07/30 04:46:59;;;;;;;6.05;5.45;;;22.80;99.90;;;;;;4128917;28;20038;-64
2022/07/30 04:49:01;;;;;;;6.70;5.78;;;22.90;99.90;;;;;;4128337;28;20022;-64
2022/07/30 04:51:06;;;;;;;7.10;6.13;;;23.00;99.90;;;;;;4128730;28;20760;-64
2022/07/30 04:53:08;;;;;;;10.32;6.55;;;22.90;99.90;;;;;;4127244;28;20046;-64
2022/07/30 04:55:11;;;;;;;6.57;5.82;;;22.90;99.90;;;;;;4127806;28;20038;-64
2022/07/30 04:57:13;;;;;;;8.90;6.20;;;22.80;99.90;;;;;;4129009;28;20042;-67
2022/07/30 04:59:16;;;;;;;7.15;6.13;;;22.80;99.90;;;;;;4128291;28;20467;-64
2022/07/30 05:01:23;;;;;;;7.00;5.40;;;22.70;99.90;;;;;;4129059;28;20038;-64
2022/07/30 05:03:25;;;;;;;7.65;5.15;;;22.70;99.90;;;;;;4128001;28;20061;-64
2022/07/30 05:05:31;;;;;;;8.05;6.03;;;22.70;99.90;;;;;;4130159;28;20112;-64
2022/07/30 05:07:32;;;;;;;8.02;6.00;;;22.70;99.90;;;;;;4127793;28;20372;-64
2022/07/30 05:09:33;;;;;;;11.05;6.63;;;22.60;99.90;;;;;;4128662;28;20112;-64
2022/07/30 05:11:35;;;;;;;9.07;6.25;;;22.50;99.90;;;;;;4129643;28;20034;-63
2022/07/30 05:13:36;;;;;;;7.95;6.15;;;22.40;99.90;;;;;;4128652;28;20043;-63
2022/07/30 05:15:37;;;;;;;7.95;6.05;;;22.40;99.90;;;;;;4127519;28;20135;-64
2022/07/30 05:17:38;;;;;;;13.07;6.20;;;22.30;99.90;;;;;;4128837;28;20085;-63
2022/07/30 05:19:39;;;;;;;10.13;5.90;;;22.20;99.90;;;;;;4127405;28;20042;-64
2022/07/30 05:21:41;;;;;;;7.53;6.05;;;22.10;99.90;;;;;;4128181;28;20562;-63
2022/07/30 05:23:42;;;;;;;7.85;6.10;;;22.10;99.90;;;;;;4136037;28;20041;-62
2022/07/30 05:25:43;;;;;;;9.27;7.10;;;22.10;99.90;;;;;;4147791;28;20038;-63
2022/07/30 05:27:44;;;;;;;8.27;7.43;;;22.10;99.90;;;;;;4147755;28;20104;-62
2022/07/30 05:29:46;;;;;;;11.60;6.60;;;22.00;99.90;;;;;;4147681;28;20076;-63
2022/07/30 05:31:47;;;;;;;8.18;6.65;;;21.90;99.90;;;;;;4134274;28;20034;-62
2022/07/30 05:33:48;;;;;;;10.23;7.10;;;21.80;99.90;;;;;;4125285;28;20058;-63
2022/07/30 05:35:50;;;;;;;9.88;6.80;;;21.70;99.90;;;;;;4131778;28;20298;-63
2022/07/30 05:37:51;;;;;;;10.85;7.07;;;21.70;99.90;;;;;;4130669;28;20046;-63
2022/07/30 05:39:53;;;;;;;8.13;7.32;;;21.60;99.90;;;;;;4131538;28;20034;-63
2022/07/30 05:41:54;;;;;;;8.52;6.47;;;21.60;99.90;;;;;;4130687;28;20093;-63
2022/07/30 05:43:55;;;;;;;9.25;6.60;;;21.60;99.90;;;;;;4131733;28;20384;-64
2022/07/30 05:45:57;;;;;;;11.57;7.03;;;21.60;99.90;;;;;;4130267;28;20096;-64
2022/07/30 05:47:58;;;;;;;8.70;7.47;;;21.60;99.90;;;;;;4132480;28;20073;-63
2022/07/30 05:49:59;;;;;;;12.25;6.95;;;21.60;99.90;;;;;;4130461;28;20093;-63
2022/07/30 05:52:00;;;;;;;12.07;6.68;;;21.60;99.90;;;;;;4131107;28;20185;-64
2022/07/30 05:54:01;;;;;;;9.95;7.03;;;21.50;99.90;;;;;;4133309;28;20045;-63
2022/07/30 05:56:02;;;;;;;12.80;7.53;;;21.50;99.90;;;;;;4147049;28;20466;-64
2022/07/30 05:58:04;;;;;;;10.93;7.45;;;21.40;99.90;;;;;;4130906;28;20105;-64
2022/07/30 06:00:06;;;;;;;10.45;6.95;;;21.40;99.90;;;;;;4131034;28;20094;-64
2022/07/30 06:02:07;;;;;;;10.70;7.13;;;21.40;99.90;;;;;;4130933;28;20035;-63
2022/07/30 06:04:08;;;;;;;11.18;7.80;;;21.30;99.90;;;;;;4130184;28;20038;-62
2022/07/30 06:06:10;;;;;;;11.88;7.45;;;21.30;99.90;;;;;;4131111;28;20080;-63
2022/07/30 06:08:11;;;;;;;9.90;7.70;;;21.20;99.90;;;;;;4130321;28;20454;-63
2022/07/30 06:10:12;;;;;;;10.38;7.68;;;21.20;99.90;;;;;;4130958;28;20454;-64
2022/07/30 06:12:13;;;;;;;12.10;7.65;;;21.30;99.90;;;;;;4139397;28;21097;-63
2022/07/30 06:14:14;;;;;;;8.93;6.95;;;21.30;99.90;;;;;;4146870;28;20038;-65
2022/07/30 06:16:16;;;;;;;10.93;7.53;;;21.30;99.90;;;;;;4146055;28;20038;-63
2022/07/30 06:18:17;;;;;;;9.27;7.72;;;21.30;99.90;;;;;;4146967;28;20482;-65
2022/07/30 06:20:20;;;;;;;11.60;7.28;;;21.40;99.90;;;;;;4146132;28;20033;-63
2022/07/30 06:22:21;;;;;;;11.18;8.15;;;21.40;99.90;;;;;;4143340;28;20108;-63
2022/07/30 06:24:22;;;;;;;10.63;8.07;;;21.40;99.90;;;;;;4129859;28;20037;-63
2022/07/30 06:26:23;;;;;;;10.38;7.13;;;21.50;99.90;;;;;;4130409;28;20046;-63
2022/07/30 06:28:24;;;;;;;12.90;7.38;;;21.60;99.90;;;;;;4130845;28;20026;-63
2022/07/30 06:30:27;;;;;;;9.57;6.50;;;21.70;99.90;;;;;;4139026;28;20030;-65
2022/07/30 06:32:28;;;;;;;10.20;6.47;;;21.80;99.90;;;;;;4136701;28;20088;-62
2022/07/30 06:34:30;;;;;;;8.90;7.18;;;22.00;99.90;;;;;;4134803;28;20893;-63
2022/07/30 06:36:31;;;;;;;10.00;6.80;;;22.10;99.90;;;;;;4129403;28;20108;-63
2022/07/30 06:38:32;;;;;;;7.88;6.95;;;22.10;99.90;;;;;;4130042;28;20042;-63
2022/07/30 06:40:33;;;;;;;11.15;7.82;;;22.20;99.90;;;;;;4130925;28;20438;-65
2022/07/30 06:42:35;;;;;;;11.90;8.25;;;22.20;99.90;;;;;;4130788;28;20069;-67
2022/07/30 06:44:36;;;;;;;17.98;8.13;;;22.20;99.90;;;;;;4131728;28;20046;-64
2022/07/30 06:46:37;;;;;;;16.98;10.10;;;22.10;99.90;;;;;;4128559;28;20131;-64
2022/07/30 06:48:38;;;;;;;14.88;8.15;;;22.10;99.90;;;;;;4130732;28;20081;-65
2022/07/30 06:50:40;;;;;;;11.75;7.47;;;22.00;99.90;;;;;;4130701;28;20034;-64
2022/07/30 06:52:41;;;;;;;17.38;9.77;;;22.00;99.90;;;;;;4133428;28;20050;-63
2022/07/30 06:54:42;;;;;;;13.88;9.52;;;21.90;99.90;;;;;;4145657;28;20034;-64
2022/07/30 06:56:43;;;;;;;14.18;8.80;;;21.90;99.90;;;;;;4146229;28;20029;-63
2022/07/30 06:58:45;;;;;;;8.23;7.18;;;21.80;99.90;;;;;;4145908;28;20076;-65
2022/07/30 07:00:46;;;;;;;8.57;7.28;;;21.70;99.90;;;;;;4145972;28;20482;-64
2022/07/30 07:02:47;;;;;;;13.13;8.40;;;21.60;99.90;;;;;;4136596;28;20348;-63
2022/07/30 07:04:48;;;;;;;10.18;7.95;;;21.60;99.90;;;;;;4129158;28;20034;-63
2022/07/30 07:06:49;;;;;;;9.27;8.18;;;21.60;99.90;;;;;;4130378;28;20109;-66
2022/07/30 07:08:50;;;;;;;27.00;16.08;;;21.60;99.90;;;;;;4129174;28;20042;-64
2022/07/30 07:10:52;;;;;;;11.68;8.73;;;21.60;99.90;;;;;;4130600;28;20655;-65
2022/07/30 07:12:53;;;;;;;9.98;8.35;;;21.60;99.90;;;;;;4129442;28;20881;-67
2022/07/30 07:14:54;;;;;;;13.75;8.80;;;21.70;99.90;;;;;;4130226;28;20042;-65
2022/07/30 07:16:55;;;;;;;13.52;9.18;;;21.70;99.90;;;;;;4130243;28;20043;-65
2022/07/30 07:18:57;;;;;;;13.10;9.00;;;21.70;99.90;;;;;;4130270;28;20482;-66
2022/07/30 07:20:58;;;;;;;13.50;9.00;;;21.70;99.90;;;;;;4128695;28;20177;-63
2022/07/30 07:23:00;;;;;;;11.60;9.07;;;21.70;99.90;;;;;;4130212;28;20085;-66
2022/07/30 07:25:01;;;;;;;11.27;9.02;;;21.70;99.90;;;;;;4129608;28;20080;-66
2022/07/30 07:27:02;;;;;;;14.18;8.18;;;21.80;99.90;;;;;;4129736;28;20534;-67
2022/07/30 07:29:03;;;;;;;12.18;8.52;;;21.80;99.90;;;;;;4129207;28;20080;-64
2022/07/30 07:31:05;;;;;;;24.10;9.88;;;21.80;99.90;;;;;;4129440;28;20030;-63
2022/07/30 07:33:06;;;;;;;14.23;9.27;;;21.80;99.90;;;;;;4138635;28;20367;-66
2022/07/30 07:35:08;;;;;;;20.05;9.13;;;21.80;99.90;;;;;;4144457;28;20108;-62
2022/07/30 07:37:09;;;;;;;16.73;9.02;;;21.70;99.90;;;;;;4146043;28;20421;-64
2022/07/30 07:39:11;;;;;;;17.27;10.02;;;21.70;99.90;;;;;;4144898;28;20026;-65
2022/07/30 07:41:12;;;;;;;10.32;8.35;;;21.70;99.90;;;;;;4145816;28;20037;-64
2022/07/30 07:43:14;;;;;;;13.02;10.30;;;21.80;99.90;;;;;;4144636;28;20030;-63
2022/07/30 07:45:15;;;;;;;16.38;9.38;;;22.00;99.90;;;;;;4144111;28;20153;-65
2022/07/30 07:47:16;;;;;;;13.45;10.27;;;22.20;99.90;;;;;;4137431;28;20046;-64
2022/07/30 07:49:17;;;;;;;18.33;11.18;;;22.40;99.90;;;;;;4131002;28;20434;-65
2022/07/30 07:51:19;;;;;;;16.13;11.38;;;22.30;99.90;;;;;;4128438;28;20050;-66
2022/07/30 07:53:21;;;;;;;14.38;10.88;;;22.20;99.90;;;;;;4129362;28;20689;-64
2022/07/30 07:55:22;;;;;;;13.38;10.57;;;22.30;99.90;;;;;;4128096;28;20411;-65
2022/07/30 07:57:23;;;;;;;13.55;11.23;;;22.30;99.90;;;;;;4129186;28;20022;-64
2022/07/30 07:59:24;;;;;;;13.80;11.05;;;22.30;99.90;;;;;;4141392;28;20463;-64
2022/07/30 08:01:25;;;;;;;18.77;10.23;;;22.40;99.90;;;;;;4145445;28;20038;-64
2022/07/30 08:03:26;;;;;;;15.63;9.68;;;22.60;99.90;;;;;;4145023;28;20105;-64
2022/07/30 08:05:28;;;;;;;11.23;9.68;;;22.90;99.90;;;;;;4144642;28;20080;-69
2022/07/30 08:07:29;;;;;;;19.30;10.52;;;23.00;99.90;;;;;;4145136;28;20406;-66
2022/07/30 08:09:30;;;;;;;11.30;9.00;;;23.10;99.90;;;;;;4144104;28;20175;-65
2022/07/30 08:11:31;;;;;;;14.40;10.23;;;23.40;99.90;;;;;;4143766;28;20116;-66
2022/07/30 08:13:33;;;;;;;15.88;11.35;;;23.80;99.90;;;;;;4142218;28;20037;-66
2022/07/30 08:15:34;;;;;;;20.60;13.10;;;23.90;99.90;;;;;;4145451;28;20541;-68
2022/07/30 08:17:45;;;;;;;19.05;13.10;;;24.10;99.90;;;;;;4144214;28;20604;-67
2022/07/30 08:19:46;;;;;;;19.52;13.45;;;24.30;99.90;;;;;;4144902;28;20034;-66
2022/07/30 08:21:47;;;;;;;18.25;13.02;;;24.40;99.90;;;;;;4143796;28;20116;-65
2022/07/30 08:23:48;;;;;;;18.17;12.63;;;24.50;99.90;;;;;;4129028;28;20497;-64
2022/07/30 08:25:49;;;;;;;16.83;12.75;;;24.80;99.90;;;;;;4127709;28;20035;-67
2022/07/30 08:27:52;;;;;;;37.60;14.93;;;25.00;99.90;;;;;;4129219;28;20042;-65
2022/07/30 08:29:53;;;;;;;19.88;13.05;;;25.10;99.90;;;;;;4128301;28;20034;-67
2022/07/30 08:31:55;;;;;;;16.33;9.85;;;25.20;99.90;;;;;;4127494;28;20042;-65
2022/07/30 08:33:56;;;;;;;14.27;10.32;;;25.00;99.90;;;;;;4128212;28;20046;-67
2022/07/30 08:35:57;;;;;;;9.93;8.43;;;25.00;99.90;;;;;;4128153;28;20525;-65
2022/07/30 08:37:58;;;;;;;10.82;8.98;;;25.10;99.90;;;;;;4128749;28;20042;-68
2022/07/30 08:40:00;;;;;;;8.10;6.80;;;25.20;99.90;;;;;;4127926;28;20022;-68
2022/07/30 08:42:03;;;;;;;7.07;6.00;;;25.10;99.90;;;;;;4128916;28;20442;-68
2022/07/30 08:44:09;;;;;;;7.85;6.22;;;25.10;99.90;;;;;;4127490;28;20027;-65
2022/07/30 08:46:13;;;;;;;8.93;6.15;;;25.20;99.90;;;;;;4131698;28;20092;-65
2022/07/30 08:48:17;;;;;;;7.13;5.80;;;25.30;99.90;;;;;;4127580;28;20042;-69
2022/07/30 08:50:18;;;;;;;16.05;7.43;;;25.40;99.90;;;;;;4128582;28;20447;-69
2022/07/30 08:52:20;;;;;;;24.52;8.02;;;25.50;99.90;;;;;;4128328;28;20100;-69
2022/07/30 08:54:21;;;;;;;13.50;6.90;;;25.70;99.90;;;;;;4128226;28;20054;-67
2022/07/30 08:56:22;;;;;;;12.48;6.22;;;25.70;99.90;;;;;;4118192;28;20081;-66
2022/07/30 08:58:35;;;;;;;9.43;6.80;;;25.80;99.90;;;;;;4131065;28;20395;-66
2022/07/30 09:00:36;;;;;;;11.15;6.32;;;25.80;99.90;;;;;;4140855;28;20105;-68
2022/07/30 09:02:37;;;;;;;13.70;6.97;;;25.90;99.90;;;;;;4142884;28;20069;-66
2022/07/30 09:04:38;;;;;;;23.80;7.18;;;25.90;99.90;;;;;;4146252;28;20083;-67
2022/07/30 09:06:39;;;;;;;13.88;6.57;;;26.00;99.90;;;;;;4134729;28;20042;-68
2022/07/30 09:08:41;;;;;;;7.57;5.30;;;26.00;99.90;;;;;;4130308;28;20502;-64
2022/07/30 09:10:43;;;;;;;9.25;6.18;;;26.00;99.90;;;;;;4131139;28;20043;-64
2022/07/30 09:12:44;;;;;;;7.72;5.63;;;25.80;99.90;;;;;;4129028;28;20046;-65
2022/07/30 09:15:10;;;;;;;30.08;9.27;;;25.70;99.90;;;;;;4136282;28;20046;-66
2022/07/30 09:17:11;;;;;;;39.60;8.75;;;25.80;99.90;;;;;;4146726;28;20108;-66
2022/07/30 09:19:15;;;;;;;9.30;5.50;;;25.90;99.90;;;;;;4147153;28;20026;-67
2022/07/30 09:21:19;;;;;;;12.20;5.47;;;25.90;99.90;;;;;;4146826;28;20030;-67
2022/07/30 09:23:20;;;;;;;9.02;4.95;;;25.70;99.90;;;;;;4146900;28;20023;-66
2022/07/30 09:25:38;;;;;;;17.52;7.30;;;25.70;99.90;;;;;;4140935;28;20490;-68
2022/07/30 09:27:44;;;;;;;18.15;7.30;;;25.70;99.90;;;;;;4131107;28;20038;-67
2022/07/30 09:29:57;;;;;;;12.40;6.47;;;25.90;99.90;;;;;;4138947;28;20111;-67
2022/07/30 09:32:04;;;;;;;9.57;5.97;;;26.10;99.90;;;;;;4147149;28;20089;-67
2022/07/30 09:34:36;;;;;;;15.32;6.07;;;26.30;99.90;;;;;;4147638;28;20532;-67
2022/07/30 09:36:37;;;;;;;13.98;6.32;;;26.40;99.90;;;;;;4147152;28;20042;-66
2022/07/30 09:38:52;;;;;;;8.35;5.63;;;26.50;99.90;;;;;;4146719;28;20127;-66
2022/07/30 09:40:55;;;;;;;7.15;4.60;;;26.70;99.90;;;;;;4146531;28;20030;-70
2022/07/30 09:43:03;;;;;;;4.93;4.45;;;27.10;99.90;;;;;;4145570;28;20559;-68
2022/07/30 09:45:13;;;;;;;4.90;4.32;;;27.30;99.90;;;;;;4146807;28;20081;-64
2022/07/30 09:47:33;;;;;;;7.68;4.80;;;27.40;99.90;;;;;;4144234;28;20374;-68
2022/07/30 09:49:36;;;;;;;5.30;4.65;;;27.50;99.90;;;;;;4146805;28;20042;-64
2022/07/30 09:51:37;;;;;;;4.45;4.05;;;27.60;99.90;;;;;;4147005;28;20038;-74
2022/07/30 09:54:00;;;;;;;4.40;3.88;;;27.80;99.90;;;;;;4145636;28;20087;-75
2022/07/30 09:56:28;;;;;;;7.18;4.10;;;27.80;99.90;;;;;;4125816;28;20522;-65
2022/07/30 09:58:40;;;;;;;4.05;3.65;;;27.80;99.90;;;;;;4130875;28;20093;-66
2022/07/30 10:00:42;;;;;;;5.45;3.83;;;27.70;99.90;;;;;;4136149;28;20084;-65
2022/07/30 10:02:43;;;;;;;4.75;4.35;;;27.80;99.90;;;;;;4147057;28;20042;-65
2022/07/30 10:04:44;;;;;;;5.03;3.63;;;27.60;99.90;;;;;;4146237;28;20034;-64
2022/07/30 10:06:45;;;;;;;5.55;3.75;;;27.50;99.90;;;;;;4132418;28;20034;-64
2022/07/30 10:08:49;;;;;;;6.65;3.97;;;27.50;99.90;;;;;;4130291;28;20088;-65
2022/07/30 10:10:51;;;;;;;4.05;3.55;;;27.60;99.90;;;;;;4130021;28;20042;-66
2022/07/30 10:13:03;;;;;;;5.28;4.15;;;27.80;99.90;;;;;;4130833;28;20034;-66
2022/07/30 10:15:06;;;;;;;5.32;4.00;;;27.90;99.90;;;;;;4130199;28;20097;-65
2022/07/30 10:17:07;;;;;;;10.10;3.97;;;27.80;99.90;;;;;;4137543;28;20038;-65
2022/07/30 10:19:08;;;;;;;6.13;3.90;;;27.80;99.90;;;;;;4145323;28;20088;-69
2022/07/30 10:21:09;;;;;;;5.40;4.28;;;27.70;99.90;;;;;;4146268;28;20034;-65
2022/07/30 10:23:11;;;;;;;6.32;3.92;;;27.70;99.90;;;;;;4145802;28;20030;-64
2022/07/30 10:25:15;;;;;;;8.38;4.32;;;27.70;99.90;;;;;;4145189;28;20443;-67
2022/07/30 10:27:17;;;;;;;4.53;4.10;;;27.70;99.90;;;;;;4145999;28;20362;-66
2022/07/30 10:29:19;;;;;;;4.63;3.95;;;27.80;99.90;;;;;;4146605;28;20048;-72
2022/07/30 10:31:21;;;;;;;5.93;4.05;;;27.90;99.90;;;;;;4146288;28;20083;-67
2022/07/30 10:33:26;;;;;;;4.82;4.20;;;28.00;99.90;;;;;;4146673;28;20390;-64
2022/07/30 10:35:27;;;;;;;4.72;3.70;;;28.10;99.90;;;;;;4145485;28;20038;-63
2022/07/30 10:37:32;;;;;;;5.60;4.07;;;28.20;99.90;;;;;;4139772;28;20104;-64
2022/07/30 10:39:43;;;;;;;3.92;3.58;;;28.30;99.90;;;;;;4129462;28;20026;-65
2022/07/30 10:42:05;;;;;;;5.75;3.97;;;28.40;99.90;;;;;;4143253;28;20069;-66
2022/07/30 10:44:09;;;;;;;6.25;4.20;;;28.60;99.90;;;;;;4145490;28;20025;-64